createdAt,value
2022-12-15T00:01:42.485Z,-0.90
2022-12-15T00:04:29.583Z,-1.00
2022-12-15T00:12:38.148Z,-1.80
2022-12-15T00:15:24.224Z,-2.20
2022-12-15T00:18:10.065Z,-1.90
2022-12-15T00:20:55.427Z,-2.20
2022-12-15T00:23:40.444Z,-2.50
2022-12-15T00:26:25.506Z,-2.50
2022-12-15T00:29:11.684Z,-2.20
2022-12-15T00:34:37.263Z,-2.10
2022-12-15T00:37:23.005Z,-2.00
2022-12-15T00:39:58.491Z,-2.40
2022-12-15T00:42:26.325Z,-2.50
2022-12-15T00:44:53.838Z,-2.30
2022-12-15T00:47:21.844Z,-2.30
2022-12-15T00:50:14.051Z,-2.40
2022-12-15T00:58:55.587Z,-2.40
2022-12-15T01:01:40.906Z,-2.40
2022-12-15T01:04:26.187Z,-2.60
2022-12-15T01:07:11.164Z,-2.50
2022-12-15T01:09:56.564Z,-2.60
2022-12-15T01:12:41.966Z,-2.40
2022-12-15T01:21:05.291Z,-2.20
2022-12-15T01:23:34.641Z,-1.90
2022-12-15T01:26:04.088Z,-1.70
2022-12-15T01:28:31.636Z,-1.40
2022-12-15T01:30:59.420Z,-1.30
2022-12-15T01:33:26.815Z,-1.30
2022-12-15T01:35:59.166Z,-1.50
2022-12-15T01:38:28.637Z,-1.50
2022-12-15T01:46:57.242Z,-2.20
2022-12-15T01:49:28.706Z,-2.20
2022-12-15T01:52:00.908Z,-2.20
2022-12-15T01:54:34.045Z,-2.20
2022-12-15T01:57:05.387Z,-2.20
2022-12-15T01:59:38.105Z,-2.10
2022-12-15T02:02:06.594Z,-2.00
2022-12-15T02:04:34.693Z,-1.90
2022-12-15T02:12:13.405Z,-2.00
2022-12-15T02:14:54.044Z,-1.60
2022-12-15T02:17:37.246Z,-1.30
2022-12-15T02:20:33.483Z,-1.60
2022-12-15T02:23:37.443Z,-1.60
2022-12-15T02:26:27.568Z,-2.10
2022-12-15T02:31:50.969Z,-2.10
2022-12-15T02:34:28.067Z,-2.20
2022-12-15T02:36:59.741Z,-2.20
2022-12-15T02:39:30.665Z,-2.30
2022-12-15T02:41:58.447Z,-2.60
2022-12-15T02:44:30.303Z,-2.70
2022-12-15T02:47:14.546Z,-2.20
2022-12-15T02:55:00.223Z,-2.40
2022-12-15T02:57:38.086Z,-2.60
2022-12-15T03:00:09.988Z,-2.50
2022-12-15T03:02:40.785Z,-2.60
2022-12-15T03:05:09.786Z,-2.50
2022-12-15T03:07:37.108Z,-2.60
2022-12-15T03:10:07.464Z,-2.60
2022-12-15T03:20:30.744Z,-1.80
2022-12-15T03:22:58.213Z,-1.90
2022-12-15T03:25:25.664Z,-1.80
2022-12-15T03:27:53.364Z,-1.60
2022-12-15T03:30:24.744Z,-1.70
2022-12-15T03:32:55.406Z,-1.50
2022-12-15T03:35:22.704Z,-1.30
2022-12-15T03:42:58.091Z,-1.30
2022-12-15T03:45:27.613Z,-1.60
2022-12-15T03:47:56.646Z,-1.50
2022-12-15T03:50:26.040Z,-1.70
2022-12-15T03:52:54.522Z,-1.90
2022-12-15T03:55:22.935Z,-1.90
2022-12-15T03:57:50.585Z,-1.90
2022-12-15T04:02:54.715Z,-2.00
2022-12-15T04:05:26.047Z,-1.70
2022-12-15T04:07:53.805Z,-1.70
2022-12-15T04:10:22.348Z,-2.00
2022-12-15T04:12:49.863Z,-2.10
2022-12-15T04:15:16.936Z,-2.00
2022-12-15T04:17:44.297Z,-1.90
2022-12-15T04:20:13.467Z,-2.00
2022-12-15T04:28:03.898Z,-2.10
2022-12-15T04:30:49.688Z,-2.30
2022-12-15T04:33:36.236Z,-2.30
2022-12-15T04:36:22.018Z,-2.10
2022-12-15T04:39:07.156Z,-1.70
2022-12-15T04:41:52.197Z,-1.80
2022-12-15T04:44:38.678Z,-2.30
2022-12-15T04:52:46.478Z,-2.30
2022-12-15T04:55:31.844Z,-2.10
2022-12-15T04:58:17.099Z,-1.90
2022-12-15T05:01:01.992Z,-1.80
2022-12-15T05:03:46.978Z,-1.80
2022-12-15T05:06:32.219Z,-1.80
2022-12-15T05:09:18.928Z,-2.00
2022-12-15T05:17:27.928Z,-2.10
2022-12-15T05:20:13.449Z,-1.80
2022-12-15T05:22:58.928Z,-1.80
2022-12-15T05:25:43.947Z,-1.90
2022-12-15T05:28:32.585Z,-2.20
2022-12-15T05:31:17.859Z,-2.20
2022-12-15T05:38:52.118Z,-2.20
2022-12-15T05:41:21.116Z,-2.20
2022-12-15T05:43:48.730Z,-2.20
2022-12-15T05:46:16.270Z,-2.10
2022-12-15T05:48:44.265Z,-2.10
2022-12-15T05:51:13.225Z,-2.10
2022-12-15T05:53:42.262Z,-1.70
2022-12-15T05:58:49.227Z,-1.80
2022-12-15T06:01:18.491Z,-2.00
2022-12-15T06:03:46.228Z,-2.30
2022-12-15T06:06:14.263Z,-2.20
2022-12-15T06:08:43.145Z,-2.20
2022-12-15T06:11:13.010Z,-2.30
2022-12-15T06:13:41.278Z,-2.30
2022-12-15T06:21:38.798Z,-2.40
2022-12-15T06:24:07.610Z,-2.30
2022-12-15T06:26:37.039Z,-2.40
2022-12-15T06:29:07.507Z,-2.40
2022-12-15T06:31:36.170Z,-2.40
2022-12-15T06:34:04.471Z,-2.30
2022-12-15T06:36:31.999Z,-2.20
2022-12-15T06:41:49.978Z,-2.20
2022-12-15T06:44:17.825Z,-2.50
2022-12-15T06:46:46.328Z,-2.40
2022-12-15T06:49:14.755Z,-2.20
2022-12-15T06:51:44.405Z,-2.00
2022-12-15T06:54:12.097Z,-2.20
2022-12-15T06:56:39.958Z,-3.30
2022-12-15T07:02:02.169Z,-3.70
2022-12-15T07:04:32.425Z,-3.70
2022-12-15T07:06:59.818Z,-3.40
2022-12-15T07:09:27.916Z,-3.30
2022-12-15T07:11:55.247Z,-3.20
2022-12-15T07:14:23.405Z,-3.20
2022-12-15T07:16:50.839Z,-2.80
2022-12-15T07:24:56.389Z,-2.60
2022-12-15T07:27:23.785Z,-2.60
2022-12-15T07:29:51.887Z,-2.50
2022-12-15T07:32:19.867Z,-2.30
2022-12-15T07:34:47.857Z,-2.50
2022-12-15T07:37:16.312Z,-2.50
2022-12-15T07:39:43.779Z,-2.40
2022-12-15T07:49:40.317Z,-2.30
2022-12-15T07:52:08.067Z,-2.40
2022-12-15T07:54:35.987Z,-2.40
2022-12-15T07:57:05.179Z,-2.40
2022-12-15T07:59:33.213Z,-2.50
2022-12-15T08:02:01.105Z,-2.40
2022-12-15T08:04:28.845Z,-2.30
2022-12-15T08:12:01.980Z,-2.50
2022-12-15T08:14:29.586Z,-2.10
2022-12-15T08:16:57.071Z,-2.50
2022-12-15T08:19:24.517Z,-2.60
2022-12-15T08:21:51.999Z,-2.50
2022-12-15T08:24:20.017Z,-2.50
2022-12-15T08:26:50.482Z,-2.40
2022-12-15T08:37:08.716Z,-2.80
2022-12-15T08:39:36.899Z,-2.80
2022-12-15T08:42:04.639Z,-2.80
2022-12-15T08:44:32.758Z,-2.70
2022-12-15T08:47:00.026Z,-2.70
2022-12-15T08:49:27.838Z,-2.50
2022-12-15T08:51:55.286Z,-2.30
2022-12-15T08:57:07.719Z,-2.40
2022-12-15T08:59:35.387Z,-2.20
2022-12-15T09:02:03.935Z,-2.20
2022-12-15T09:04:31.717Z,-2.20
2022-12-15T09:06:59.365Z,-2.10
2022-12-15T09:09:27.903Z,-2.10
2022-12-15T09:11:55.381Z,-2.20
2022-12-15T09:20:55.277Z,-2.90
2022-12-15T09:23:22.960Z,-2.50
2022-12-15T09:25:50.817Z,-2.50
2022-12-15T09:28:18.569Z,-2.50
2022-12-15T09:30:46.467Z,-2.50
2022-12-15T09:33:13.918Z,-2.40
2022-12-15T09:35:41.938Z,-2.40
2022-12-15T09:41:23.580Z,-2.60
2022-12-15T09:43:58.015Z,-2.40
2022-12-15T09:46:44.484Z,-2.40
2022-12-15T09:49:33.401Z,-2.30
2022-12-15T09:52:10.634Z,-2.10
2022-12-15T09:54:41.110Z,-1.90
2022-12-15T09:57:18.038Z,-1.80
2022-12-15T10:04:58.037Z,-1.40
2022-12-15T10:07:32.287Z,-1.50
2022-12-15T10:09:59.800Z,-1.70
2022-12-15T10:12:32.627Z,-1.70
2022-12-15T10:15:12.982Z,-1.90
2022-12-15T10:17:46.640Z,-1.90
2022-12-15T10:20:25.878Z,-1.50
2022-12-15T10:22:56.428Z,-1.40
2022-12-15T10:28:42.699Z,-1.00
2022-12-15T10:31:19.357Z,-1.40
2022-12-15T10:33:55.371Z,-1.70
2022-12-15T10:36:23.058Z,-1.70
2022-12-15T10:38:51.147Z,-1.70
2022-12-15T10:41:21.085Z,-1.60
2022-12-15T10:43:51.160Z,-1.70
2022-12-15T10:51:28.568Z,-1.60
2022-12-15T10:54:13.100Z,-1.80
2022-12-15T10:56:50.250Z,-2.00
2022-12-15T10:59:26.105Z,-1.60
2022-12-15T11:01:54.083Z,-1.40
2022-12-15T11:04:31.599Z,-1.40
2022-12-15T11:07:04.398Z,-1.20
2022-12-15T11:09:38.761Z,-1.20
2022-12-15T11:16:22.292Z,-1.30
2022-12-15T11:18:53.885Z,-1.20
2022-12-15T11:21:25.585Z,-1.10
2022-12-15T11:24:02.699Z,-0.60
2022-12-15T11:26:48.987Z,-0.50
2022-12-15T11:29:28.025Z,-1.00
2022-12-15T11:42:58.822Z,-1.00
2022-12-15T11:45:38.941Z,-0.70
2022-12-15T11:48:13.354Z,-0.90
2022-12-15T11:50:51.769Z,-1.00
2022-12-15T11:53:30.653Z,-1.40
2022-12-15T11:56:08.122Z,-1.50
2022-12-15T11:59:15.888Z,-1.10
2022-12-15T12:07:08.684Z,-1.10
2022-12-15T12:09:37.312Z,-2.20
2022-12-15T12:12:22.179Z,-1.80
2022-12-15T12:15:08.050Z,-1.50
2022-12-15T12:17:42.763Z,-1.80
2022-12-15T12:20:18.022Z,-1.70
2022-12-15T12:22:55.842Z,-1.70
2022-12-15T12:30:33.014Z,-1.90
2022-12-15T12:33:10.837Z,-1.30
2022-12-15T12:35:47.375Z,-0.70
2022-12-15T12:38:31.234Z,-0.80
2022-12-15T12:41:11.825Z,-1.00
2022-12-15T12:43:44.966Z,-0.90
2022-12-15T12:46:26.558Z,-0.80
2022-12-15T12:54:01.393Z,-0.90
2022-12-15T12:56:39.701Z,-1.10
2022-12-15T12:59:36.894Z,-1.00
2022-12-15T13:02:45.624Z,-1.20
2022-12-15T13:05:26.274Z,-0.80
2022-12-15T13:08:13.255Z,-0.50
2022-12-15T13:13:51.333Z,-0.60
2022-12-15T13:16:25.186Z,-0.90
2022-12-15T13:19:12.622Z,-1.60
2022-12-15T13:21:57.144Z,-2.30
2022-12-15T13:24:47.126Z,-2.20
2022-12-15T13:27:19.585Z,-2.40
2022-12-15T13:35:23.775Z,-3.10
2022-12-15T13:37:55.958Z,-3.10
2022-12-15T13:40:35.658Z,-2.90
2022-12-15T13:43:37.007Z,-2.70
2022-12-15T13:46:13.654Z,-2.80
2022-12-15T13:48:49.369Z,-2.70
2022-12-15T13:51:30.780Z,-2.90
2022-12-15T13:57:07.737Z,-3.30
2022-12-15T13:59:42.928Z,-3.00
2022-12-15T14:02:28.775Z,-2.70
2022-12-15T14:05:28.855Z,-2.80
2022-12-15T14:08:00.478Z,-2.80
2022-12-15T14:10:39.098Z,-3.20
2022-12-15T14:13:16.254Z,-3.50
2022-12-15T14:20:30.457Z,-3.20
2022-12-15T14:22:59.446Z,-3.10
2022-12-15T14:25:30.290Z,-3.10
2022-12-15T14:28:00.138Z,-3.20
2022-12-15T14:30:32.694Z,-3.00
2022-12-15T14:33:24.032Z,-3.10
2022-12-15T14:35:58.574Z,-2.70
2022-12-15T14:46:39.620Z,-1.70
2022-12-15T14:49:39.199Z,-1.10
2022-12-15T14:52:26.038Z,-1.20
2022-12-15T14:54:59.845Z,-1.10
2022-12-15T14:57:44.725Z,-1.00
2022-12-15T15:00:27.816Z,-0.90
2022-12-15T15:03:04.785Z,-0.90
2022-12-15T15:08:48.651Z,-0.20
2022-12-15T15:11:29.025Z,-0.50
2022-12-15T15:14:00.525Z,-0.50
2022-12-15T15:16:29.059Z,-0.70
2022-12-15T15:19:01.197Z,-0.90
2022-12-15T15:21:31.134Z,-1.20
2022-12-15T15:24:06.177Z,-1.30
2022-12-15T15:31:42.145Z,-1.80
2022-12-15T15:34:13.104Z,-1.70
2022-12-15T15:36:41.725Z,-1.70
2022-12-15T15:39:21.276Z,-1.70
2022-12-15T15:41:49.651Z,-1.70
2022-12-15T15:44:17.715Z,-1.80
2022-12-15T15:49:29.905Z,-1.70
2022-12-15T15:51:59.975Z,-1.50
2022-12-15T15:54:36.898Z,-1.40
2022-12-15T15:57:10.667Z,-1.10
2022-12-15T15:59:41.942Z,-0.90
2022-12-15T16:02:12.195Z,-0.80
2022-12-15T16:04:46.548Z,-0.70
2022-12-15T16:15:26.086Z,-0.50
2022-12-15T16:17:57.597Z,-1.30
2022-12-15T16:20:30.814Z,-1.30
2022-12-15T16:23:08.655Z,-1.10
2022-12-15T16:25:50.121Z,-0.90
2022-12-15T16:28:21.991Z,-0.70
2022-12-15T16:30:53.653Z,-0.60
2022-12-15T16:38:34.422Z,-0.40
2022-12-15T16:41:06.681Z,-1.40
2022-12-15T16:43:42.981Z,-1.70
2022-12-15T16:46:22.857Z,-1.40
2022-12-15T16:48:53.738Z,-1.40
2022-12-15T16:51:31.785Z,-1.60
2022-12-15T16:54:04.931Z,-2.10
2022-12-15T17:01:39.866Z,-2.50
2022-12-15T17:04:08.281Z,-2.50
2022-12-15T17:06:35.935Z,-2.80
2022-12-15T17:09:03.507Z,-3.00
2022-12-15T17:11:32.454Z,-3.00
2022-12-15T17:14:01.687Z,-3.20
2022-12-15T17:16:29.537Z,-3.40
2022-12-15T17:24:08.038Z,-3.60
2022-12-15T17:26:38.143Z,-3.80
2022-12-15T17:29:10.538Z,-3.70
2022-12-15T17:31:38.991Z,-3.60
2022-12-15T17:34:24.067Z,-3.50
2022-12-15T17:36:52.239Z,-3.40
2022-12-15T17:39:22.775Z,-3.30
2022-12-15T17:44:47.973Z,-3.30
2022-12-15T17:47:17.500Z,-3.30
2022-12-15T17:49:46.585Z,-3.30
2022-12-15T17:52:33.877Z,-3.50
2022-12-15T17:55:03.078Z,-3.80
2022-12-15T17:57:33.998Z,-3.80
2022-12-15T18:00:16.167Z,-3.90
2022-12-15T18:07:55.947Z,-3.60
2022-12-15T18:10:30.686Z,-3.80
2022-12-15T18:12:59.495Z,-3.90
2022-12-15T18:15:29.417Z,-3.80
2022-12-15T18:18:03.318Z,-3.80
2022-12-15T18:20:31.665Z,-3.70
2022-12-15T18:23:01.485Z,-3.70
2022-12-15T18:31:22.520Z,-4.00
2022-12-15T18:33:50.519Z,-4.00
2022-12-15T18:36:19.428Z,-4.00
2022-12-15T18:38:46.864Z,-4.10
2022-12-15T18:41:16.647Z,-4.10
2022-12-15T18:43:46.059Z,-4.00
2022-12-15T18:46:14.425Z,-4.00
2022-12-15T18:51:38.941Z,-3.90
2022-12-15T18:54:07.528Z,-3.90
2022-12-15T18:56:37.225Z,-3.90
2022-12-15T18:59:08.066Z,-3.80
2022-12-15T19:01:35.894Z,-3.70
2022-12-15T19:04:03.917Z,-3.80
2022-12-15T19:06:35.398Z,-3.60
2022-12-15T19:12:16.808Z,-3.40
2022-12-15T19:14:44.685Z,-3.20
2022-12-15T19:17:31.024Z,-3.00
2022-12-15T19:20:16.096Z,-3.00
2022-12-15T19:22:44.055Z,-3.00
2022-12-15T19:25:21.837Z,-3.10
2022-12-15T19:27:59.796Z,-3.00
2022-12-15T19:35:33.886Z,-3.10
2022-12-15T19:38:04.250Z,-3.10
2022-12-15T19:40:34.145Z,-3.10
2022-12-15T19:43:03.837Z,-3.30
2022-12-15T19:45:34.122Z,-3.80
2022-12-15T19:48:05.906Z,-4.30
2022-12-15T19:50:38.505Z,-4.30
2022-12-15T19:53:12.197Z,-4.20
2022-12-15T20:03:46.050Z,-4.00
2022-12-15T20:06:17.469Z,-4.00
2022-12-15T20:08:47.055Z,-4.40
2022-12-15T20:11:18.986Z,-4.40
2022-12-15T20:13:48.307Z,-4.40
2022-12-15T20:16:18.314Z,-4.40
2022-12-15T20:18:47.083Z,-4.40
2022-12-15T20:26:22.104Z,-4.30
2022-12-15T20:28:50.045Z,-4.30
2022-12-15T20:31:20.148Z,-4.30
2022-12-15T20:33:50.374Z,-4.60
2022-12-15T20:36:21.076Z,-4.60
2022-12-15T20:38:51.575Z,-4.30
2022-12-15T20:41:24.484Z,-4.50
2022-12-15T20:48:57.215Z,-4.20
2022-12-15T20:51:27.184Z,-4.10
2022-12-15T20:53:59.556Z,-4.00
2022-12-15T20:56:28.619Z,-4.00
2022-12-15T20:58:57.666Z,-3.80
2022-12-15T21:01:27.849Z,-3.60
2022-12-15T21:04:02.536Z,-3.80
2022-12-15T21:06:30.972Z,-4.10
2022-12-15T21:14:04.320Z,-3.80
2022-12-15T21:16:32.048Z,-3.70
2022-12-15T21:19:21.008Z,-3.50
2022-12-15T21:21:52.717Z,-3.40
2022-12-15T21:24:25.666Z,-3.80
2022-12-15T21:26:53.786Z,-3.90
2022-12-15T21:29:25.932Z,-4.00
2022-12-15T21:31:54.109Z,-4.00
2022-12-15T21:39:30.986Z,-3.70
2022-12-15T21:42:01.244Z,-3.90
2022-12-15T21:44:30.157Z,-3.90
2022-12-15T21:46:58.528Z,-3.90
2022-12-15T21:49:25.777Z,-4.00
2022-12-15T21:51:57.030Z,-4.20
2022-12-15T21:54:31.000Z,-4.00
2022-12-15T21:56:59.607Z,-3.80
2022-12-15T22:04:34.034Z,-3.90
2022-12-15T22:07:01.827Z,-4.10
2022-12-15T22:09:29.109Z,-4.20
2022-12-15T22:11:57.627Z,-4.10
2022-12-15T22:14:29.507Z,-4.10
2022-12-15T22:16:58.057Z,-4.10
2022-12-15T22:19:25.695Z,-4.30
2022-12-15T22:21:54.406Z,-4.20
2022-12-15T22:29:32.344Z,-4.00
2022-12-15T22:32:00.357Z,-3.60
2022-12-15T22:34:28.786Z,-4.00
2022-12-15T22:36:56.196Z,-4.10
2022-12-15T22:39:24.565Z,-4.20
2022-12-15T22:41:53.077Z,-4.20
2022-12-15T22:44:24.487Z,-4.30
2022-12-15T22:51:56.885Z,-4.20
2022-12-15T22:54:26.169Z,-4.20
2022-12-15T22:56:58.264Z,-4.10
2022-12-15T22:59:31.765Z,-4.00
2022-12-15T23:02:00.731Z,-3.80
2022-12-15T23:04:28.265Z,-3.80
2022-12-15T23:14:13.117Z,-4.20
2022-12-15T23:16:40.328Z,-4.30
2022-12-15T23:19:08.146Z,-4.50
2022-12-15T23:21:36.889Z,-4.30
2022-12-15T23:24:05.471Z,-4.20
2022-12-15T23:26:33.994Z,-4.00
2022-12-15T23:29:01.586Z,-4.00
2022-12-15T23:31:30.343Z,-4.00
2022-12-15T23:39:06.928Z,-4.50
2022-12-15T23:41:35.257Z,-4.40
2022-12-15T23:44:02.714Z,-4.50
2022-12-15T23:46:30.602Z,-4.50
2022-12-15T23:48:59.524Z,-4.50
2022-12-15T23:51:26.784Z,-4.50
2022-12-15T23:53:54.836Z,-4.50
2022-12-15T23:56:24.635Z,-4.60
